createdAt,value
2023-03-02T00:02:22.357Z,78.01
2023-03-02T00:04:53.004Z,77.76
2023-03-02T00:07:25.462Z,78.18
2023-03-02T00:09:53.567Z,77.75
2023-03-02T00:12:20.828Z,77.91
2023-03-02T00:14:47.972Z,77.68
2023-03-02T00:17:15.510Z,77.13
2023-03-02T00:19:42.646Z,77.10
2023-03-02T00:22:11.048Z,77.56
2023-03-02T00:24:38.673Z,77.54
2023-03-02T00:27:05.777Z,77.14
2023-03-02T00:29:32.878Z,78.16
2023-03-02T00:32:00.307Z,77.35
2023-03-02T00:34:27.455Z,77.65
2023-03-02T00:36:54.529Z,77.07
2023-03-02T00:39:21.911Z,77.13
2023-03-02T00:41:48.992Z,77.16
2023-03-02T00:44:19.349Z,76.72
2023-03-02T00:46:46.853Z,77.11
2023-03-02T00:49:13.965Z,76.57
2023-03-02T00:51:41.065Z,75.39
2023-03-02T00:54:08.555Z,75.01
2023-03-02T00:56:36.001Z,74.62
2023-03-02T00:59:26.610Z,74.17
2023-03-02T01:01:58.358Z,73.44
2023-03-02T01:04:29.768Z,72.92
2023-03-02T01:07:03.589Z,73.10
2023-03-02T01:09:31.418Z,72.88
2023-03-02T01:11:59.402Z,73.76
2023-03-02T01:14:26.602Z,74.02
2023-03-02T01:16:53.823Z,73.34
2023-03-02T01:19:21.332Z,72.89
2023-03-02T01:21:48.554Z,72.09
2023-03-02T01:24:15.886Z,71.70
2023-03-02T01:26:43.392Z,72.54
2023-03-02T01:29:11.629Z,72.18
2023-03-02T01:31:39.377Z,73.59
2023-03-02T01:34:06.983Z,72.92
2023-03-02T01:36:34.819Z,72.97
2023-03-02T01:39:02.548Z,72.96
2023-03-02T01:41:30.093Z,73.76
2023-03-02T01:43:57.753Z,73.37
2023-03-02T01:46:31.432Z,72.58
2023-03-02T01:49:03.421Z,72.26
2023-03-02T01:51:34.913Z,72.05
2023-03-02T01:54:04.834Z,73.27
2023-03-02T01:56:36.028Z,74.01
2023-03-02T01:59:09.690Z,74.07
2023-03-02T02:01:38.348Z,73.87
2023-03-02T02:04:06.571Z,72.83
2023-03-02T02:06:41.246Z,73.75
2023-03-02T02:09:11.208Z,73.49
2023-03-02T02:11:38.438Z,74.40
2023-03-02T02:14:06.608Z,74.53
2023-03-02T02:16:35.449Z,74.16
2023-03-02T02:19:04.492Z,74.55
2023-03-02T02:21:31.928Z,73.98
2023-03-02T02:24:08.117Z,74.76
2023-03-02T02:26:53.316Z,75.34
2023-03-02T02:29:33.072Z,74.56
2023-03-02T02:32:10.422Z,74.34
2023-03-02T02:34:49.130Z,74.87
2023-03-02T02:37:32.220Z,74.29
2023-03-02T02:40:02.214Z,74.83
2023-03-02T02:42:32.771Z,74.98
2023-03-02T02:45:06.933Z,74.94
2023-03-02T02:47:34.504Z,75.88
2023-03-02T02:50:01.965Z,75.19
2023-03-02T02:52:29.185Z,75.77
2023-03-02T02:54:58.216Z,75.04
2023-03-02T02:57:28.267Z,75.50
2023-03-02T02:59:56.509Z,74.88
2023-03-02T03:02:29.496Z,75.73
2023-03-02T03:05:05.456Z,75.42
2023-03-02T03:07:33.696Z,76.19
2023-03-02T03:10:08.877Z,76.23
2023-03-02T03:12:36.428Z,75.88
2023-03-02T03:15:04.222Z,76.83
2023-03-02T03:17:31.459Z,76.91
2023-03-02T03:20:11.279Z,77.24
2023-03-02T03:22:40.064Z,77.24
2023-03-02T03:25:08.237Z,77.53
2023-03-02T03:27:35.372Z,77.53
2023-03-02T03:30:03.008Z,77.59
2023-03-02T03:32:35.466Z,77.43
2023-03-02T03:35:08.500Z,77.77
2023-03-02T03:37:37.087Z,78.01
2023-03-02T03:40:05.911Z,78.06
2023-03-02T03:42:33.380Z,78.43
2023-03-02T03:45:01.222Z,78.42
2023-03-02T03:47:28.576Z,78.06
2023-03-02T03:49:55.799Z,78.30
2023-03-02T03:52:30.588Z,77.80
2023-03-02T03:54:59.966Z,77.73
2023-03-02T03:57:29.117Z,77.43
2023-03-02T03:59:56.449Z,76.71
2023-03-02T04:02:23.613Z,76.91
2023-03-02T04:04:51.317Z,77.20
2023-03-02T04:07:19.034Z,77.48
2023-03-02T04:09:46.281Z,77.80
2023-03-02T04:12:13.848Z,78.78
2023-03-02T04:14:41.198Z,78.63
2023-03-02T04:17:08.515Z,78.81
2023-03-02T04:19:37.376Z,79.08
2023-03-02T04:22:04.590Z,79.11
2023-03-02T04:24:31.900Z,79.18
2023-03-02T04:26:59.791Z,79.36
2023-03-02T04:29:26.956Z,79.44
2023-03-02T04:31:54.375Z,79.81
2023-03-02T04:34:22.127Z,79.93
2023-03-02T04:36:49.264Z,79.99
2023-03-02T04:39:18.494Z,79.97
2023-03-02T04:41:46.887Z,80.34
2023-03-02T04:44:14.625Z,80.72
2023-03-02T04:46:44.561Z,79.96
2023-03-02T04:49:13.841Z,80.78
2023-03-02T04:51:43.553Z,81.01
2023-03-02T04:54:19.238Z,81.30
2023-03-02T04:56:50.713Z,81.65
2023-03-02T04:59:19.860Z,81.82
2023-03-02T05:01:47.421Z,82.09
2023-03-02T05:04:14.971Z,81.83
2023-03-02T05:06:42.331Z,82.94
2023-03-02T05:09:09.805Z,82.08
2023-03-02T05:11:37.098Z,82.41
2023-03-02T05:14:06.851Z,82.98
2023-03-02T05:16:36.579Z,71.88
2023-03-02T05:19:05.912Z,73.60
2023-03-02T05:21:33.587Z,76.49
2023-03-02T05:24:00.682Z,77.75
2023-03-02T05:26:27.861Z,78.35
2023-03-02T05:28:55.239Z,78.82
2023-03-02T05:31:28.159Z,79.56
2023-03-02T05:33:55.673Z,80.13
2023-03-02T05:36:23.441Z,79.51
2023-03-02T05:38:50.607Z,79.54
2023-03-02T05:41:18.101Z,78.83
2023-03-02T05:43:45.239Z,78.55
2023-03-02T05:46:12.454Z,78.70
2023-03-02T05:48:39.983Z,78.70
2023-03-02T05:51:07.118Z,78.19
2023-03-02T05:53:34.327Z,76.82
2023-03-02T05:56:01.856Z,76.75
2023-03-02T05:58:29.057Z,76.67
2023-03-02T06:00:56.215Z,75.77
2023-03-02T06:03:23.721Z,76.12
2023-03-02T06:05:52.420Z,75.94
2023-03-02T06:08:20.370Z,75.07
2023-03-02T06:10:50.647Z,74.91
2023-03-02T06:13:17.823Z,74.88
2023-03-02T06:15:45.217Z,75.11
2023-03-02T06:18:13.777Z,75.09
2023-03-02T06:20:41.968Z,75.22
2023-03-02T06:23:11.468Z,75.24
2023-03-02T06:25:41.361Z,74.42
2023-03-02T06:28:08.625Z,74.37
2023-03-02T06:30:35.868Z,73.47
2023-03-02T06:33:03.486Z,72.34
2023-03-02T06:35:30.938Z,71.91
2023-03-02T06:37:58.197Z,70.19
2023-03-02T06:40:25.792Z,71.11
2023-03-02T06:42:53.034Z,71.32
2023-03-02T06:45:20.181Z,69.70
2023-03-02T06:47:47.780Z,69.58
2023-03-02T06:50:14.945Z,67.86
2023-03-02T06:52:42.124Z,67.81
2023-03-02T06:55:10.035Z,67.93
2023-03-02T06:57:37.395Z,67.67
2023-03-02T07:00:11.214Z,67.45
2023-03-02T07:02:38.824Z,67.61
2023-03-02T07:05:07.023Z,66.37
2023-03-02T07:07:34.230Z,62.35
2023-03-02T07:10:01.722Z,61.06
2023-03-02T07:12:29.000Z,57.24
2023-03-02T07:14:56.800Z,59.47
2023-03-02T07:17:24.225Z,56.69
2023-03-02T07:19:51.394Z,55.10
2023-03-02T07:22:18.605Z,53.76
2023-03-02T07:24:46.098Z,54.80
2023-03-02T07:27:13.325Z,50.96
2023-03-02T07:29:40.500Z,50.72
2023-03-02T07:32:09.278Z,49.35
2023-03-02T07:34:38.014Z,48.93
2023-03-02T07:37:05.195Z,52.64
2023-03-02T07:39:32.684Z,49.08
2023-03-02T07:42:01.247Z,50.08
2023-03-02T07:44:28.700Z,47.47
2023-03-02T07:46:56.541Z,48.24
2023-03-02T07:49:23.829Z,47.14
2023-03-02T07:51:51.004Z,47.10
2023-03-02T07:54:18.517Z,48.80
2023-03-02T07:56:45.719Z,46.04
2023-03-02T07:59:13.518Z,48.10
2023-03-02T08:01:41.063Z,52.83
2023-03-02T08:04:08.641Z,44.38
2023-03-02T08:06:35.877Z,48.57
2023-03-02T08:09:04.208Z,43.00
2023-03-02T08:11:32.286Z,41.88
2023-03-02T08:14:01.359Z,46.69
2023-03-02T08:16:29.081Z,43.13
2023-03-02T08:18:59.525Z,42.01
2023-03-02T08:21:27.939Z,39.01
2023-03-02T08:23:55.213Z,41.13
2023-03-02T08:26:22.839Z,43.30
2023-03-02T08:28:50.046Z,39.72
2023-03-02T08:31:17.346Z,41.16
2023-03-02T08:33:46.054Z,38.94
2023-03-02T08:36:15.893Z,41.27
2023-03-02T08:38:43.920Z,42.54
2023-03-02T08:41:14.360Z,40.46
2023-03-02T08:43:41.618Z,41.01
2023-03-02T08:46:11.288Z,37.19
2023-03-02T08:48:39.717Z,39.83
2023-03-02T08:51:09.636Z,41.72
2023-03-02T08:53:38.987Z,43.26
2023-03-02T08:56:15.816Z,42.55
2023-03-02T08:58:42.980Z,40.75
2023-03-02T09:01:31.885Z,42.81
2023-03-02T09:04:00.958Z,45.12
2023-03-02T09:06:30.881Z,38.70
2023-03-02T09:08:58.668Z,39.58
2023-03-02T09:11:27.096Z,41.42
2023-03-02T09:13:54.962Z,43.35
2023-03-02T09:16:25.730Z,38.40
2023-03-02T09:18:53.670Z,39.86
2023-03-02T09:21:21.274Z,42.43
2023-03-02T09:23:48.399Z,43.77
2023-03-02T09:26:15.506Z,42.79
2023-03-02T09:28:42.874Z,42.38
2023-03-02T09:31:11.327Z,47.35
2023-03-02T09:33:38.527Z,42.42
2023-03-02T09:36:11.593Z,41.70
2023-03-02T09:38:38.729Z,38.71
2023-03-02T09:41:21.187Z,41.54
2023-03-02T09:44:00.601Z,37.39
2023-03-02T09:46:51.927Z,38.84
2023-03-02T09:49:31.387Z,39.93
2023-03-02T09:52:22.478Z,43.34
2023-03-02T09:54:49.690Z,41.53
2023-03-02T09:57:27.189Z,41.42
2023-03-02T10:00:03.765Z,47.20
2023-03-02T10:02:44.607Z,41.02
2023-03-02T10:05:25.130Z,42.22
2023-03-02T10:07:52.297Z,53.06
2023-03-02T10:10:25.979Z,45.81
2023-03-02T10:12:53.069Z,46.88
2023-03-02T10:15:35.414Z,41.22
2023-03-02T10:18:17.219Z,44.02
2023-03-02T10:21:01.045Z,40.54
2023-03-02T10:23:40.382Z,44.72
2023-03-02T10:26:10.656Z,41.89
2023-03-02T10:29:00.741Z,43.68
2023-03-02T10:31:31.281Z,40.57
2023-03-02T10:33:59.520Z,41.44
2023-03-02T10:36:34.652Z,40.98
2023-03-02T10:39:03.607Z,41.21
2023-03-02T10:41:41.138Z,41.78
2023-03-02T10:44:22.192Z,41.09
2023-03-02T10:46:49.479Z,41.84
2023-03-02T10:49:25.708Z,47.19
2023-03-02T10:52:04.150Z,46.56
2023-03-02T10:54:36.876Z,42.42
2023-03-02T10:57:17.125Z,41.24
2023-03-02T10:59:46.265Z,42.18
2023-03-02T11:02:27.509Z,44.82
2023-03-02T11:04:57.633Z,42.88
2023-03-02T11:07:28.996Z,42.19
2023-03-02T11:10:04.951Z,42.96
2023-03-02T11:12:35.975Z,45.25
2023-03-02T11:15:29.063Z,43.92
2023-03-02T11:18:05.318Z,45.59
2023-03-02T11:20:36.091Z,46.13
2023-03-02T11:23:45.727Z,42.58
2023-03-02T11:26:20.775Z,42.35
2023-03-02T11:28:53.925Z,44.84
2023-03-02T11:31:30.316Z,42.21
2023-03-02T11:34:17.900Z,46.40
2023-03-02T11:37:14.001Z,47.05
2023-03-02T11:39:55.516Z,46.27
2023-03-02T11:42:29.702Z,41.27
2023-03-02T11:45:03.332Z,43.06
2023-03-02T11:47:32.305Z,44.58
2023-03-02T11:50:05.543Z,47.34
2023-03-02T11:52:36.877Z,51.84
2023-03-02T11:55:13.064Z,49.09
2023-03-02T11:57:48.588Z,49.42
2023-03-02T12:00:35.648Z,48.32
2023-03-02T12:03:15.448Z,50.43
2023-03-02T12:06:25.305Z,49.65
2023-03-02T12:08:55.327Z,47.10
2023-03-02T12:11:22.410Z,50.56
2023-03-02T12:13:49.414Z,48.25
2023-03-02T12:16:21.206Z,46.31
2023-03-02T12:18:52.584Z,44.55
2023-03-02T12:21:22.824Z,42.63
2023-03-02T12:23:49.983Z,47.41
2023-03-02T12:26:19.975Z,47.40
2023-03-02T12:28:59.380Z,51.08
2023-03-02T12:31:27.802Z,48.14
2023-03-02T12:33:55.415Z,45.87
2023-03-02T12:36:32.960Z,44.78
2023-03-02T12:39:23.543Z,46.46
2023-03-02T12:42:29.507Z,45.87
2023-03-02T12:45:13.542Z,48.51
2023-03-02T12:47:45.268Z,49.00
2023-03-02T12:50:25.519Z,47.63
2023-03-02T12:52:59.803Z,48.49
2023-03-02T12:55:27.887Z,44.18
2023-03-02T12:57:57.665Z,47.37
2023-03-02T13:00:30.886Z,42.63
2023-03-02T13:02:59.699Z,44.90
2023-03-02T13:05:29.869Z,45.75
2023-03-02T13:08:09.341Z,46.49
2023-03-02T13:10:40.389Z,45.99
2023-03-02T13:13:20.650Z,42.05
2023-03-02T13:15:51.932Z,48.53
2023-03-02T13:18:23.459Z,47.42
2023-03-02T13:20:52.077Z,43.68
2023-03-02T13:23:19.793Z,43.55
2023-03-02T13:25:52.032Z,46.18
2023-03-02T13:28:39.254Z,45.98
2023-03-02T13:31:20.461Z,46.80
2023-03-02T13:33:50.473Z,44.81
2023-03-02T13:36:25.091Z,44.59
2023-03-02T13:38:55.141Z,41.12
2023-03-02T13:41:31.302Z,45.89
2023-03-02T13:43:59.516Z,44.51
2023-03-02T13:46:35.742Z,47.31
2023-03-02T13:49:11.240Z,46.17
2023-03-02T13:51:44.485Z,47.48
2023-03-02T13:54:21.723Z,42.73
2023-03-02T13:56:51.218Z,46.81
2023-03-02T13:59:20.128Z,43.96
2023-03-02T14:01:47.664Z,45.89
2023-03-02T14:04:18.056Z,44.12
2023-03-02T14:06:45.895Z,46.76
2023-03-02T14:09:13.930Z,43.10
2023-03-02T14:11:46.804Z,46.59
2023-03-02T14:14:19.811Z,43.58
2023-03-02T14:16:47.320Z,43.94
2023-03-02T14:19:16.383Z,45.29
2023-03-02T14:21:43.727Z,42.92
2023-03-02T14:24:11.737Z,42.97
2023-03-02T14:26:41.276Z,43.23
2023-03-02T14:29:20.798Z,42.46
2023-03-02T14:31:48.335Z,45.64
2023-03-02T14:34:16.504Z,40.82
2023-03-02T14:36:45.308Z,48.75
2023-03-02T14:39:24.170Z,44.09
2023-03-02T14:41:54.216Z,46.76
2023-03-02T14:44:23.116Z,42.18
2023-03-02T14:46:50.436Z,42.28
2023-03-02T14:49:17.719Z,42.71
2023-03-02T14:51:53.586Z,44.57
2023-03-02T14:54:20.759Z,41.74
2023-03-02T14:56:49.422Z,43.76
2023-03-02T14:59:17.852Z,41.41
2023-03-02T15:01:45.147Z,42.61
2023-03-02T15:04:12.642Z,42.31
2023-03-02T15:06:41.547Z,42.74
2023-03-02T15:09:09.806Z,43.91
2023-03-02T15:11:37.298Z,44.10
2023-03-02T15:14:04.436Z,45.32
2023-03-02T15:16:31.654Z,45.07
2023-03-02T15:18:59.157Z,42.67
2023-03-02T15:21:26.394Z,42.95
2023-03-02T15:23:53.668Z,46.60
2023-03-02T15:26:21.148Z,46.89
2023-03-02T15:28:51.899Z,45.50
2023-03-02T15:31:19.491Z,44.66
2023-03-02T15:33:47.179Z,44.32
2023-03-02T15:36:14.567Z,44.85
2023-03-02T15:38:41.770Z,45.37
2023-03-02T15:41:12.672Z,45.43
2023-03-02T15:43:40.008Z,46.12
2023-03-02T15:46:09.338Z,45.60
2023-03-02T15:48:40.062Z,46.04
2023-03-02T15:51:08.322Z,47.40
2023-03-02T15:53:38.238Z,48.47
2023-03-02T15:56:07.508Z,48.39
2023-03-02T15:58:35.397Z,49.51
2023-03-02T16:01:11.037Z,50.94
2023-03-02T16:03:38.739Z,51.07
2023-03-02T16:06:07.297Z,51.16
2023-03-02T16:08:35.780Z,53.21
2023-03-02T16:11:07.498Z,54.89
2023-03-02T16:13:35.017Z,55.39
2023-03-02T16:16:04.014Z,56.52
2023-03-02T16:18:31.378Z,57.25
2023-03-02T16:20:59.451Z,57.80
2023-03-02T16:23:27.243Z,58.06
2023-03-02T16:25:54.486Z,59.22
2023-03-02T16:28:21.685Z,60.03
2023-03-02T16:30:51.279Z,59.45
2023-03-02T16:33:19.064Z,58.33
2023-03-02T16:35:46.270Z,57.25
2023-03-02T16:38:14.004Z,57.84
2023-03-02T16:40:41.282Z,56.44
2023-03-02T16:43:10.692Z,56.04
2023-03-02T16:45:38.266Z,55.70
2023-03-02T16:48:06.058Z,55.61
2023-03-02T16:50:33.398Z,57.28
2023-03-02T16:53:00.925Z,55.54
2023-03-02T16:55:28.282Z,55.74
2023-03-02T16:57:55.735Z,56.78
2023-03-02T17:00:24.215Z,57.69
2023-03-02T17:02:51.888Z,58.08
2023-03-02T17:05:20.151Z,58.71
2023-03-02T17:07:48.035Z,59.03
2023-03-02T17:10:18.971Z,60.25
2023-03-02T17:12:46.170Z,60.96
2023-03-02T17:15:14.386Z,62.42
2023-03-02T17:17:41.597Z,63.62
2023-03-02T17:20:11.937Z,64.47
2023-03-02T17:22:39.809Z,65.06
2023-03-02T17:25:07.562Z,65.53
2023-03-02T17:27:34.702Z,65.99
2023-03-02T17:30:02.126Z,65.62
2023-03-02T17:32:29.541Z,65.33
2023-03-02T17:34:56.714Z,64.90
2023-03-02T17:37:26.011Z,63.92
2023-03-02T17:39:53.253Z,63.88
2023-03-02T17:42:20.481Z,63.74
2023-03-02T17:44:47.948Z,64.66
2023-03-02T17:47:15.687Z,64.57
2023-03-02T17:49:45.182Z,65.09
2023-03-02T17:52:13.891Z,66.00
2023-03-02T17:54:41.311Z,66.36
2023-03-02T17:57:08.652Z,67.27
2023-03-02T17:59:36.420Z,68.20
2023-03-02T18:02:03.937Z,69.13
2023-03-02T18:04:31.518Z,70.10
2023-03-02T18:06:58.772Z,70.22
2023-03-02T18:09:26.751Z,70.60
2023-03-02T18:11:54.238Z,71.89
2023-03-02T18:14:21.596Z,72.08
2023-03-02T18:16:49.001Z,72.67
2023-03-02T18:19:16.531Z,73.46
2023-03-02T18:21:45.408Z,73.82
2023-03-02T18:24:12.660Z,74.15
2023-03-02T18:26:40.346Z,74.43
2023-03-02T18:29:07.594Z,74.60
2023-03-02T18:31:34.850Z,75.14
2023-03-02T18:34:02.707Z,75.32
2023-03-02T18:36:30.208Z,75.87
2023-03-02T18:38:57.387Z,76.21
2023-03-02T18:41:24.950Z,76.27
2023-03-02T18:43:52.378Z,76.46
2023-03-02T18:46:26.435Z,76.66
2023-03-02T18:48:53.968Z,76.78
2023-03-02T18:51:22.790Z,76.94
2023-03-02T18:53:51.042Z,77.43
2023-03-02T18:56:19.119Z,77.28
2023-03-02T18:58:46.399Z,77.00
2023-03-02T19:01:13.574Z,77.62
2023-03-02T19:03:41.854Z,76.98
2023-03-02T19:06:09.145Z,77.92
2023-03-02T19:08:36.487Z,77.64
2023-03-02T19:11:05.228Z,78.71
2023-03-02T19:13:32.661Z,78.62
2023-03-02T19:16:01.974Z,78.79
2023-03-02T19:18:31.093Z,79.03
2023-03-02T19:20:58.329Z,79.64
2023-03-02T19:23:25.589Z,79.60
2023-03-02T19:25:53.557Z,79.63
2023-03-02T19:28:21.765Z,80.56
2023-03-02T19:30:49.888Z,80.62
2023-03-02T19:33:20.193Z,80.53
2023-03-02T19:35:47.463Z,81.04
2023-03-02T19:38:14.700Z,81.44
2023-03-02T19:40:42.143Z,81.23
2023-03-02T19:43:09.394Z,81.37
2023-03-02T19:45:38.098Z,81.30
2023-03-02T19:48:06.138Z,81.84
2023-03-02T19:50:33.320Z,82.27
2023-03-02T19:53:00.500Z,82.18
2023-03-02T19:55:27.978Z,82.79
2023-03-02T19:58:02.174Z,83.12
2023-03-02T20:00:31.336Z,83.19
2023-03-02T20:02:59.578Z,83.71
2023-03-02T20:05:27.643Z,83.45
2023-03-02T20:08:05.143Z,84.06
2023-03-02T20:10:41.950Z,84.08
2023-03-02T20:13:09.708Z,83.88
2023-03-02T20:15:40.298Z,84.57
2023-03-02T20:18:14.747Z,85.06
2023-03-02T20:20:42.949Z,85.24
2023-03-02T20:23:10.102Z,85.69
2023-03-02T20:25:37.564Z,85.73
2023-03-02T20:28:06.180Z,82.88
2023-03-02T20:30:36.737Z,82.96
2023-03-02T20:33:05.916Z,82.93
2023-03-02T20:35:34.189Z,83.65
2023-03-02T20:38:02.596Z,83.96
2023-03-02T20:40:29.960Z,85.09
2023-03-02T20:42:57.458Z,85.26
2023-03-02T20:45:24.820Z,83.12
2023-03-02T20:47:52.140Z,83.52
2023-03-02T20:50:23.420Z,83.49
2023-03-02T20:52:50.809Z,84.59
2023-03-02T20:55:18.549Z,83.41
2023-03-02T20:57:46.157Z,85.08
2023-03-02T21:00:17.895Z,86.06
2023-03-02T21:02:47.638Z,87.16
2023-03-02T21:05:16.686Z,87.92
2023-03-02T21:07:44.743Z,87.27
2023-03-02T21:10:15.289Z,85.81
2023-03-02T21:12:43.009Z,86.54
2023-03-02T21:15:10.708Z,86.53
2023-03-02T21:17:38.315Z,85.89
2023-03-02T21:20:06.224Z,84.46
2023-03-02T21:22:33.838Z,83.89
2023-03-02T21:25:01.641Z,84.04
2023-03-02T21:27:29.091Z,84.12
2023-03-02T21:29:56.490Z,85.06
2023-03-02T21:32:23.985Z,84.71
2023-03-02T21:34:51.219Z,84.91
2023-03-02T21:37:18.431Z,84.08
2023-03-02T21:39:45.861Z,83.88
2023-03-02T21:42:13.089Z,85.61
2023-03-02T21:44:40.255Z,84.95
2023-03-02T21:47:08.008Z,86.68
2023-03-02T21:49:35.180Z,86.42
2023-03-02T21:52:02.382Z,87.21
2023-03-02T21:54:29.846Z,87.03
2023-03-02T21:56:57.043Z,87.26
2023-03-02T21:59:24.237Z,86.45
2023-03-02T22:01:51.713Z,85.89
2023-03-02T22:04:19.353Z,85.16
2023-03-02T22:06:46.540Z,85.55
2023-03-02T22:09:13.718Z,84.78
2023-03-02T22:11:41.364Z,84.00
2023-03-02T22:14:17.537Z,84.06
2023-03-02T22:16:47.441Z,84.39
2023-03-02T22:19:40.672Z,85.34
2023-03-02T22:22:16.824Z,85.89
2023-03-02T22:24:49.258Z,86.28
2023-03-02T22:27:32.301Z,84.99
2023-03-02T22:30:01.808Z,82.97
2023-03-02T22:32:37.245Z,83.62
2023-03-02T22:35:18.796Z,83.24
2023-03-02T22:37:46.418Z,84.26
2023-03-02T22:40:33.895Z,84.39
2023-03-02T22:43:21.013Z,85.13
2023-03-02T22:45:48.184Z,86.88
2023-03-02T22:48:18.094Z,86.25
2023-03-02T22:50:46.484Z,87.48
2023-03-02T22:53:24.329Z,87.27
2023-03-02T22:55:59.221Z,87.05
2023-03-02T22:58:39.715Z,88.12
2023-03-02T23:01:18.951Z,88.64
2023-03-02T23:03:47.565Z,88.24
2023-03-02T23:06:38.479Z,87.90
2023-03-02T23:09:06.439Z,88.90
2023-03-02T23:11:40.907Z,87.81
2023-03-02T23:14:26.158Z,89.09
2023-03-02T23:17:02.436Z,91.26
2023-03-02T23:19:31.175Z,89.42
2023-03-02T23:21:59.541Z,88.88
2023-03-02T23:24:27.537Z,88.96
2023-03-02T23:26:54.749Z,88.90
2023-03-02T23:29:22.316Z,89.59
2023-03-02T23:31:49.937Z,88.60
2023-03-02T23:34:17.123Z,88.82
2023-03-02T23:36:44.617Z,89.08
2023-03-02T23:39:12.410Z,89.11
2023-03-02T23:41:39.635Z,89.45
2023-03-02T23:44:07.171Z,89.58
2023-03-02T23:46:34.883Z,89.65
2023-03-02T23:49:02.217Z,90.46
2023-03-02T23:51:29.715Z,89.99
2023-03-02T23:53:56.959Z,89.46
2023-03-02T23:56:24.896Z,90.45
2023-03-02T23:58:52.347Z,89.59
